createdAt,value
2022-10-07T00:04:44.013Z,0.00
2022-10-07T00:09:43.913Z,0.00
2022-10-07T00:14:43.875Z,0.00
2022-10-07T00:19:43.939Z,0.00
2022-10-07T00:24:43.757Z,0.00
2022-10-07T00:29:44.878Z,0.00
2022-10-07T00:34:43.781Z,0.00
2022-10-07T00:39:43.721Z,0.00
2022-10-07T00:44:43.659Z,0.00
2022-10-07T00:49:43.495Z,0.00
2022-10-07T00:54:43.430Z,0.00
2022-10-07T00:59:43.385Z,0.00
2022-10-07T01:04:45.374Z,0.00
2022-10-07T01:09:43.373Z,0.00
2022-10-07T01:14:43.226Z,0.00
2022-10-07T01:19:43.242Z,0.00
2022-10-07T01:24:43.203Z,0.00
2022-10-07T01:29:43.162Z,0.00
2022-10-07T01:34:43.148Z,0.00
2022-10-07T01:39:42.964Z,0.00
2022-10-07T01:44:42.870Z,0.00
2022-10-07T01:49:42.821Z,0.00
2022-10-07T01:54:42.768Z,0.00
2022-10-07T01:59:42.769Z,0.00
2022-10-07T02:04:42.695Z,0.00
2022-10-07T02:09:42.787Z,0.00
2022-10-07T02:14:42.684Z,0.00
2022-10-07T02:19:44.596Z,0.00
2022-10-07T02:24:42.602Z,0.00
2022-10-07T02:29:42.515Z,0.00
2022-10-07T02:34:42.345Z,0.00
2022-10-07T02:39:45.778Z,0.00
2022-10-07T02:44:42.248Z,0.00
2022-10-07T02:49:42.179Z,0.00
2022-10-07T02:54:42.131Z,0.00
2022-10-07T02:59:42.100Z,0.00
2022-10-07T03:04:42.065Z,0.00
2022-10-07T03:09:42.161Z,0.00
2022-10-07T03:14:42.059Z,0.00
2022-10-07T03:19:41.988Z,0.00
2022-10-07T03:24:41.964Z,0.00
2022-10-07T03:29:41.915Z,0.00
2022-10-07T03:38:38.809Z,0.00
2022-10-07T03:43:38.771Z,0.00
2022-10-07T03:48:38.677Z,0.00
2022-10-07T03:53:38.648Z,0.00
2022-10-07T03:58:38.657Z,0.00
2022-10-07T04:03:38.557Z,0.00
2022-10-07T04:08:38.620Z,0.00
2022-10-07T04:13:38.602Z,0.00
2022-10-07T04:18:38.489Z,0.00
2022-10-07T04:23:38.478Z,0.00
2022-10-07T04:28:38.526Z,0.00
2022-10-07T04:33:38.359Z,0.00
2022-10-07T04:38:38.141Z,0.00
2022-10-07T04:43:38.097Z,0.00
2022-10-07T04:48:38.038Z,0.00
2022-10-07T04:53:38.037Z,0.00
2022-10-07T04:58:37.997Z,0.00
2022-10-07T05:03:38.062Z,0.00
2022-10-07T05:08:37.953Z,0.00
2022-10-07T05:13:38.805Z,0.00
2022-10-07T05:18:37.905Z,0.00
2022-10-07T05:23:38.797Z,0.00
2022-10-07T05:28:37.761Z,5.62
2022-10-07T05:33:37.531Z,11.25
2022-10-07T05:38:37.511Z,16.88
2022-10-07T05:43:37.503Z,28.12
2022-10-07T05:48:39.448Z,45.00
2022-10-07T05:53:37.390Z,61.88
2022-10-07T05:58:37.362Z,78.75
2022-10-07T06:03:37.260Z,95.62
2022-10-07T06:08:37.196Z,112.50
2022-10-07T06:13:37.237Z,129.38
2022-10-07T06:18:37.082Z,146.25
2022-10-07T06:23:36.992Z,163.12
2022-10-07T06:28:37.184Z,180.00
2022-10-07T06:33:36.910Z,196.88
2022-10-07T06:38:36.816Z,208.12
2022-10-07T06:43:36.805Z,225.00
2022-10-07T06:48:36.721Z,241.88
2022-10-07T06:53:36.747Z,253.12
2022-10-07T06:58:36.714Z,270.00
2022-10-07T07:03:38.557Z,286.88
2022-10-07T07:08:36.588Z,286.88
2022-10-07T07:13:36.485Z,286.88
2022-10-07T07:18:36.445Z,309.38
2022-10-07T07:23:36.394Z,343.12
2022-10-07T07:28:36.337Z,360.00
2022-10-07T07:33:36.263Z,365.62
2022-10-07T07:38:36.190Z,382.50
2022-10-07T07:43:36.154Z,405.00
2022-10-07T07:48:36.119Z,421.88
2022-10-07T07:53:36.045Z,466.88
2022-10-07T07:58:36.011Z,1209.38
2022-10-07T08:03:35.946Z,1575.00
2022-10-07T08:08:35.876Z,1777.50
2022-10-07T08:13:35.870Z,1760.62
2022-10-07T08:18:35.742Z,1288.12
2022-10-07T08:23:35.821Z,1063.12
2022-10-07T08:28:35.876Z,1035.00
2022-10-07T08:33:35.624Z,1029.38
2022-10-07T08:38:35.576Z,1102.50
2022-10-07T08:43:35.806Z,1631.25
2022-10-07T08:48:35.503Z,2013.75
2022-10-07T08:53:35.509Z,2289.38
2022-10-07T08:58:35.370Z,2351.25
2022-10-07T09:03:35.386Z,2368.12
2022-10-07T09:08:35.424Z,2182.50
2022-10-07T09:13:35.286Z,2643.75
2022-10-07T09:18:36.388Z,2345.62
2022-10-07T09:23:35.109Z,2593.12
2022-10-07T09:28:36.389Z,2407.50
2022-10-07T09:35:11.401Z,2351.25
2022-10-07T09:40:11.354Z,2261.25
2022-10-07T09:45:12.459Z,2469.38
2022-10-07T09:50:11.319Z,2773.12
2022-10-07T09:55:11.271Z,2902.50
2022-10-07T10:00:11.166Z,2868.75
2022-10-07T10:05:11.116Z,2874.38
2022-10-07T10:10:11.031Z,3031.88
2022-10-07T10:15:11.152Z,2925.00
2022-10-07T10:20:11.075Z,3031.88
2022-10-07T10:25:10.907Z,2857.50
2022-10-07T10:30:10.837Z,3105.00
2022-10-07T10:35:10.789Z,2970.00
2022-10-07T10:40:10.865Z,2835.00
2022-10-07T10:45:10.752Z,3099.38
2022-10-07T10:50:10.690Z,2823.75
2022-10-07T10:55:10.661Z,2857.50
2022-10-07T11:00:10.513Z,2913.75
2022-10-07T11:05:10.422Z,2891.25
2022-10-07T11:10:10.385Z,2626.88
2022-10-07T11:15:10.313Z,2542.50
2022-10-07T11:20:10.417Z,2340.00
2022-10-07T11:25:10.230Z,2250.00
2022-10-07T11:30:10.248Z,1839.38
2022-10-07T11:35:10.146Z,1788.75
2022-10-07T11:40:10.122Z,1501.88
2022-10-07T11:45:10.068Z,1501.88
2022-10-07T11:50:09.953Z,1428.75
2022-10-07T11:55:09.997Z,1220.62
2022-10-07T12:00:09.982Z,1496.25
2022-10-07T12:05:09.915Z,1496.25
2022-10-07T12:10:09.799Z,1321.88
2022-10-07T12:15:09.814Z,545.62
2022-10-07T12:20:09.776Z,540.00
2022-10-07T12:25:11.278Z,601.88
2022-10-07T12:30:09.592Z,624.38
2022-10-07T12:35:09.478Z,601.88
2022-10-07T12:40:09.385Z,883.12
2022-10-07T12:45:09.387Z,787.50
2022-10-07T12:50:09.283Z,511.88
2022-10-07T12:55:09.240Z,483.75
2022-10-07T13:00:09.177Z,461.25
2022-10-07T13:05:09.123Z,433.12
2022-10-07T13:10:09.085Z,405.00
2022-10-07T13:15:09.025Z,393.75
2022-10-07T13:20:09.007Z,388.12
2022-10-07T13:25:08.882Z,393.75
2022-10-07T13:30:08.952Z,388.12
2022-10-07T13:35:08.802Z,371.25
2022-10-07T13:40:08.840Z,365.62
2022-10-07T13:45:08.769Z,360.00
2022-10-07T13:50:08.723Z,365.62
2022-10-07T13:55:08.635Z,354.38
2022-10-07T14:00:08.598Z,348.75
2022-10-07T14:05:08.503Z,348.75
2022-10-07T14:10:09.485Z,348.75
2022-10-07T14:15:08.421Z,331.88
2022-10-07T14:20:08.297Z,309.38
2022-10-07T14:25:08.320Z,292.50
2022-10-07T14:30:08.289Z,292.50
2022-10-07T14:35:08.228Z,281.25
2022-10-07T14:40:08.130Z,286.88
2022-10-07T14:45:08.097Z,286.88
2022-10-07T14:50:08.259Z,275.62
2022-10-07T14:55:08.060Z,270.00
2022-10-07T15:00:08.011Z,258.75
2022-10-07T15:05:07.990Z,258.75
2022-10-07T15:10:07.863Z,247.50
2022-10-07T15:15:07.800Z,241.88
2022-10-07T15:20:07.698Z,236.25
2022-10-07T15:25:07.591Z,236.25
2022-10-07T15:30:07.589Z,225.00
2022-10-07T15:36:41.622Z,225.00
2022-10-07T15:41:41.657Z,219.38
2022-10-07T15:46:41.635Z,213.75
2022-10-07T15:51:41.522Z,191.25
2022-10-07T15:56:41.428Z,180.00
2022-10-07T16:01:41.410Z,163.12
2022-10-07T16:06:41.293Z,157.50
2022-10-07T16:11:41.243Z,151.88
2022-10-07T16:16:41.253Z,135.00
2022-10-07T16:21:41.226Z,118.12
2022-10-07T16:26:41.127Z,106.88
2022-10-07T16:31:41.214Z,95.62
2022-10-07T16:36:45.332Z,84.38
2022-10-07T16:41:40.964Z,61.88
2022-10-07T16:46:40.926Z,45.00
2022-10-07T16:51:40.843Z,28.12
2022-10-07T16:56:40.745Z,16.88
2022-10-07T17:01:40.815Z,5.62
2022-10-07T17:06:40.715Z,5.62
2022-10-07T17:11:40.638Z,0.00
2022-10-07T17:16:40.622Z,0.00
2022-10-07T17:21:40.598Z,0.00
2022-10-07T17:26:40.491Z,0.00
2022-10-07T17:31:40.493Z,0.00
2022-10-07T17:36:41.414Z,0.00
2022-10-07T17:41:40.240Z,0.00
2022-10-07T17:46:40.428Z,0.00
2022-10-07T17:51:40.264Z,0.00
2022-10-07T17:56:40.159Z,0.00
2022-10-07T18:01:40.096Z,0.00
2022-10-07T18:06:39.973Z,0.00
2022-10-07T18:11:39.983Z,0.00
2022-10-07T18:16:40.009Z,0.00
2022-10-07T18:21:39.839Z,0.00
2022-10-07T18:26:39.784Z,0.00
2022-10-07T18:31:39.828Z,0.00
2022-10-07T18:36:39.742Z,0.00
2022-10-07T18:41:39.701Z,0.00
2022-10-07T18:46:39.616Z,0.00
2022-10-07T18:51:39.541Z,0.00
2022-10-07T18:56:41.598Z,0.00
2022-10-07T19:01:39.511Z,0.00
2022-10-07T19:06:39.399Z,0.00
2022-10-07T19:11:39.348Z,0.00
2022-10-07T19:16:39.313Z,0.00
2022-10-07T19:21:39.348Z,0.00
2022-10-07T19:26:39.274Z,0.00
2022-10-07T19:31:39.082Z,0.00
2022-10-07T19:36:39.027Z,0.00
2022-10-07T19:41:39.045Z,0.00
2022-10-07T19:46:40.103Z,0.00
2022-10-07T19:51:38.822Z,0.00
2022-10-07T19:56:38.832Z,0.00
2022-10-07T20:01:38.849Z,0.00
2022-10-07T20:06:38.704Z,0.00
2022-10-07T20:11:38.619Z,0.00
2022-10-07T20:16:38.622Z,0.00
2022-10-07T20:21:38.469Z,0.00
2022-10-07T20:26:38.480Z,0.00
2022-10-07T20:31:38.493Z,0.00
2022-10-07T20:36:38.338Z,0.00
2022-10-07T20:41:38.315Z,0.00
2022-10-07T20:46:38.289Z,0.00
2022-10-07T20:51:38.290Z,0.00
2022-10-07T20:56:38.216Z,0.00
2022-10-07T21:01:38.263Z,0.00
2022-10-07T21:06:38.083Z,0.00
2022-10-07T21:11:37.931Z,0.00
2022-10-07T21:16:37.930Z,0.00
2022-10-07T21:21:37.837Z,0.00
2022-10-07T21:26:38.845Z,0.00
2022-10-07T21:31:37.861Z,0.00
2022-10-07T21:36:37.948Z,0.00
2022-10-07T21:41:37.897Z,0.00
2022-10-07T21:46:37.718Z,0.00
2022-10-07T21:51:37.696Z,0.00
2022-10-07T21:56:37.500Z,0.00
2022-10-07T22:01:37.592Z,0.00
2022-10-07T22:06:37.382Z,0.00
2022-10-07T22:11:37.342Z,0.00
2022-10-07T22:16:37.264Z,0.00
2022-10-07T22:21:42.677Z,0.00
2022-10-07T22:26:37.233Z,0.00
2022-10-07T22:31:37.308Z,0.00
2022-10-07T22:36:37.079Z,0.00
2022-10-07T22:41:36.953Z,0.00
2022-10-07T22:46:37.126Z,0.00
2022-10-07T22:51:36.934Z,0.00
2022-10-07T22:56:36.913Z,0.00
2022-10-07T23:01:36.803Z,0.00
2022-10-07T23:06:36.731Z,0.00
2022-10-07T23:11:36.670Z,0.00
2022-10-07T23:16:37.700Z,0.00
2022-10-07T23:21:38.722Z,0.00
2022-10-07T23:26:36.656Z,0.00
2022-10-07T23:31:40.665Z,0.00
2022-10-07T23:36:38.660Z,0.00
2022-10-07T23:41:36.366Z,0.00
2022-10-07T23:46:36.560Z,0.00
2022-10-07T23:51:36.205Z,0.00
2022-10-07T23:56:36.185Z,0.00
